Time,TemperatureF,DewpointF,PressureIn,WindDirection,WindDirectionDegrees,WindSpeedMPH,WindSpeedGustMPH,Humidity,HourlyPrecipIn,Conditions,Clouds,dailyrainin,SoftwareType,DateUTC
2013-04-11 00:01:00,58.5,44.2,29.99,NNW,336,2.0,4.0,59,0.00,,,0.00,WeatherCatV1.15B25,2013-04-11 07:01:00,
2013-04-11 00:06:00,58.4,44.1,29.99,NNW,338,3.0,3.0,59,0.00,,,0.00,WeatherCatV1.15B25,2013-04-11 07:06:00,
2013-04-11 00:11:00,58.5,44.2,29.99,NW,311,4.0,5.0,59,0.00,,,0.00,WeatherCatV1.15B25,2013-04-11 07:11:00,
2013-04-11 00:16:00,58.5,44.2,29.99,NNW,343,1.0,2.0,59,0.00,,,0.00,WeatherCatV1.15B25,2013-04-11 07:16:00,
2013-04-11 00:21:00,58.4,44.1,29.99,NNW,341,0.0,3.0,59,0.00,,,0.00,WeatherCatV1.15B25,2013-04-11 07:21:00,
2013-04-11 00:26:00,58.3,44.0,29.99,NNW,340,0.0,0.0,59,0.00,,,0.00,WeatherCatV1.15B25,2013-04-11 07:26:00,
2013-04-11 00:31:00,58.2,44.4,29.99,NNW,339,3.0,4.0,60,0.00,,,0.00,WeatherCatV1.15B25,2013-04-11 07:31:00,
2013-04-11 00:36:00,58.1,43.8,29.99,NNW,333,0.0,3.0,59,0.00,,,0.00,WeatherCatV1.15B25,2013-04-11 07:36:00,
2013-04-11 00:41:00,58.1,44.3,29.99,North,354,1.0,2.0,60,0.00,,,0.00,WeatherCatV1.15B25,2013-04-11 07:41:00,
2013-04-11 00:46:00,58.1,43.8,29.99,NNW,335,0.0,3.0,59,0.00,,,0.00,WeatherCatV1.15B25,2013-04-11 07:46:00,
2013-04-11 00:51:00,58.3,44.0,29.99,NNW,342,1.0,4.0,59,0.00,,,0.00,WeatherCatV1.15B25,2013-04-11 07:51:00,
2013-04-11 00:57:00,58.4,44.1,29.99,NE,48,0.0,0.0,59,0.00,,,0.00,WeatherCatV1.15B25,2013-04-11 07:57:00,
2013-04-11 01:02:00,58.4,44.1,29.99,East,96,0.0,1.0,59,0.00,,,0.00,WeatherCatV1.15B25,2013-04-11 08:02:00,
2013-04-11 01:07:00,58.4,43.7,29.99,NNW,334,1.0,5.0,58,0.00,,,0.00,WeatherCatV1.15B25,2013-04-11 08:07:00,
2013-04-11 01:12:00,58.4,44.1,29.99,NNW,333,5.0,5.0,59,0.00,,,0.00,WeatherCatV1.15B25,2013-04-11 08:12:00,
2013-04-11 01:17:00,58.3,44.0,29.98,NNW,339,0.0,2.0,59,0.00,,,0.00,WeatherCatV1.15B25,2013-04-11 08:17:00,
2013-04-11 01:22:00,58.2,44.4,29.98,NNW,338,1.0,1.0,60,0.00,,,0.00,WeatherCatV1.15B25,2013-04-11 08:22:00,
2013-04-11 01:27:00,58.1,43.8,29.98,NNW,329,0.0,0.0,59,0.00,,,0.00,WeatherCatV1.15B25,2013-04-11 08:27:00,
2013-04-11 01:32:00,58.0,44.6,29.98,NNW,327,0.0,0.0,61,0.00,,,0.00,WeatherCatV1.15B25,2013-04-11 08:32:00,
2013-04-11 01:37:00,57.8,44.0,29.98,NNW,327,0.0,0.0,60,0.00,,,0.00,WeatherCatV1.15B25,2013-04-11 08:37:00,
2013-04-11 01:42:00,57.6,44.2,29.98,NNW,327,0.0,0.0,61,0.00,,,0.00,WeatherCatV1.15B25,2013-04-11 08:42:00,
2013-04-11 01:47:00,57.5,44.2,29.98,NNW,332,0.0,0.0,61,0.00,,,0.00,WeatherCatV1.15B25,2013-04-11 08:47:00,
2013-04-11 01:52:00,57.4,44.1,29.98,NNW,332,2.0,3.0,61,0.00,,,0.00,WeatherCatV1.15B25,2013-04-11 08:52:00,
2013-04-11 01:57:00,57.5,43.7,29.98,NNW,329,0.0,2.0,60,0.00,,,0.00,WeatherCatV1.15B25,2013-04-11 08:57:00,
2013-04-11 02:02:00,57.5,43.7,29.97,North,358,0.0,0.0,60,0.00,,,0.00,WeatherCatV1.15B25,2013-04-11 09:02:00,
2013-04-11 02:07:00,57.5,43.7,29.97,North,358,0.0,0.0,60,0.00,,,0.00,WeatherCatV1.15B25,2013-04-11 09:07:00,
2013-04-11 02:12:00,57.5,43.7,29.97,NNW,343,0.0,0.0,60,0.00,,,0.00,WeatherCatV1.15B25,2013-04-11 09:12:00,
2013-04-11 02:17:00,57.4,43.6,29.96,NNW,343,0.0,0.0,60,0.00,,,0.00,WeatherCatV1.15B25,2013-04-11 09:17:00,
2013-04-11 02:22:00,57.3,44.0,29.96,NW,315,3.0,5.0,61,0.00,,,0.00,WeatherCatV1.15B25,2013-04-11 09:22:00,
2013-04-11 02:27:00,57.0,43.7,29.96,NNW,329,0.0,3.0,61,0.00,,,0.00,WeatherCatV1.15B25,2013-04-11 09:27:00,
2013-04-11 02:32:00,56.8,43.5,29.96,NNW,329,0.0,2.0,61,0.00,,,0.00,WeatherCatV1.15B25,2013-04-11 09:32:00,
2013-04-11 02:37:00,56.5,43.2,29.96,NW,323,1.0,4.0,61,0.00,,,0.00,WeatherCatV1.15B25,2013-04-11 09:37:00,
2013-04-11 02:42:00,56.3,43.0,29.96,NE,50,0.0,2.0,61,0.00,,,0.00,WeatherCatV1.15B25,2013-04-11 09:42:00,
2013-04-11 02:47:00,56.1,42.8,29.96,North,9,0.0,1.0,61,0.00,,,0.00,WeatherCatV1.15B25,2013-04-11 09:47:00,
2013-04-11 02:52:00,55.9,43.1,29.96,North,352,2.0,3.0,62,0.00,,,0.00,WeatherCatV1.15B25,2013-04-11 09:52:00,
2013-04-11 02:57:00,55.7,43.3,29.96,NNW,335,0.0,2.0,63,0.00,,,0.00,WeatherCatV1.15B25,2013-04-11 09:57:00,
2013-04-11 03:02:00,55.4,43.4,29.96,NNW,329,4.0,4.0,64,0.00,,,0.00,WeatherCatV1.15B25,2013-04-11 10:02:00,
2013-04-11 03:07:00,55.0,43.5,29.96,NNW,335,0.0,3.0,65,0.00,,,0.00,WeatherCatV1.15B25,2013-04-11 10:07:00,
2013-04-11 03:12:00,54.6,43.5,29.96,NNW,331,1.0,1.0,66,0.00,,,0.00,WeatherCatV1.15B25,2013-04-11 10:12:00,
2013-04-11 03:17:00,54.2,42.7,29.96,NNW,330,2.0,5.0,65,0.00,,,0.00,WeatherCatV1.15B25,2013-04-11 10:17:00,
2013-04-11 03:22:00,53.9,42.8,29.96,NNW,335,0.0,4.0,66,0.00,,,0.00,WeatherCatV1.15B25,2013-04-11 10:22:00,
2013-04-11 03:27:00,53.6,42.1,29.96,NNW,346,2.0,2.0,65,0.00,,,0.00,WeatherCatV1.15B25,2013-04-11 10:27:00,
2013-04-11 03:32:00,53.6,39.6,29.94,NNE,33,3.0,8.0,59,0.00,,,0.00,WeatherCatV1.15B25,2013-04-11 10:32:00,
2013-04-11 03:37:00,53.7,38.4,29.94,North,353,1.0,2.0,56,0.00,,,0.00,WeatherCatV1.15B25,2013-04-11 10:37:00,
2013-04-11 03:42:00,53.8,38.5,29.94,East,85,0.0,7.0,56,0.00,,,0.00,WeatherCatV1.15B25,2013-04-11 10:42:00,
2013-04-11 03:47:00,53.7,38.4,29.94,North,1,0.0,6.0,56,0.00,,,0.00,WeatherCatV1.15B25,2013-04-11 10:47:00,
2013-04-11 03:52:00,53.6,38.3,29.94,NNW,344,1.0,5.0,56,0.00,,,0.00,WeatherCatV1.15B25,2013-04-11 10:52:00,
2013-04-11 03:57:00,53.5,38.2,29.94,NNW,335,1.0,5.0,56,0.00,,,0.00,WeatherCatV1.15B25,2013-04-11 10:57:00,
2013-04-11 04:02:00,53.3,38.5,29.94,North,11,0.0,7.0,57,0.00,,,0.00,WeatherCatV1.15B25,2013-04-11 11:02:00,
2013-04-11 04:07:00,53.1,38.7,29.94,ENE,64,0.0,2.0,58,0.00,,,0.00,WeatherCatV1.15B25,2013-04-11 11:07:00,
2013-04-11 04:12:00,52.9,38.1,29.94,North,351,0.0,1.0,57,0.00,,,0.00,WeatherCatV1.15B25,2013-04-11 11:12:00,
2013-04-11 04:17:00,52.7,38.8,29.94,SE,127,0.0,0.0,59,0.00,,,0.00,WeatherCatV1.15B25,2013-04-11 11:17:00,
2013-04-11 04:22:00,52.5,37.7,29.94,NNE,17,0.0,1.0,57,0.00,,,0.00,WeatherCatV1.15B25,2013-04-11 11:22:00,
2013-04-11 04:27:00,52.4,36.7,29.94,NNW,329,0.0,4.0,55,0.00,,,0.00,WeatherCatV1.15B25,2013-04-11 11:27:00,
2013-04-11 04:32:00,52.4,37.2,29.94,NNW,337,1.0,3.0,56,0.00,,,0.00,WeatherCatV1.15B25,2013-04-11 11:32:00,
2013-04-11 04:37:00,52.4,36.7,29.94,North,4,1.0,4.0,55,0.00,,,0.00,WeatherCatV1.15B25,2013-04-11 11:37:00,
2013-04-11 04:42:00,52.4,36.2,29.94,NNW,340,2.0,3.0,54,0.00,,,0.00,WeatherCatV1.15B25,2013-04-11 11:42:00,
2013-04-11 04:47:00,52.3,36.2,29.93,NNW,337,0.0,5.0,54,0.00,,,0.00,WeatherCatV1.15B25,2013-04-11 11:47:00,
2013-04-11 04:52:00,52.2,36.5,29.93,NNW,336,0.0,1.0,55,0.00,,,0.00,WeatherCatV1.15B25,2013-04-11 11:52:00,
2013-04-11 04:57:00,52.1,36.4,29.93,NNW,343,0.0,1.0,55,0.00,,,0.00,WeatherCatV1.15B25,2013-04-11 11:57:00,
2013-04-11 05:02:00,51.9,36.7,29.93,NNW,333,2.0,3.0,56,0.00,,,0.00,WeatherCatV1.15B25,2013-04-11 12:02:00,
2013-04-11 05:07:00,51.7,37.0,29.93,NNW,344,5.0,8.0,57,0.00,,,0.00,WeatherCatV1.15B25,2013-04-11 12:07:00,
2013-04-11 05:12:00,51.5,36.8,29.93,NNW,327,2.0,7.0,57,0.00,,,0.00,WeatherCatV1.15B25,2013-04-11 12:12:00,
2013-04-11 05:17:00,51.3,37.0,29.92,NNW,336,4.0,5.0,58,0.00,,,0.00,WeatherCatV1.15B25,2013-04-11 12:17:00,
2013-04-11 05:22:00,51.1,37.7,29.92,NW,326,5.0,7.0,60,0.00,,,0.00,WeatherCatV1.15B25,2013-04-11 12:22:00,
2013-04-11 05:27:00,50.8,37.4,29.92,NNW,337,2.0,4.0,60,0.00,,,0.00,WeatherCatV1.15B25,2013-04-11 12:27:00,
2013-04-11 05:32:00,50.7,37.7,29.91,NNW,329,0.0,1.0,61,0.00,,,0.00,WeatherCatV1.15B25,2013-04-11 12:32:00,
2013-04-11 05:37:00,50.5,42.2,29.91,NNW,329,0.0,0.0,73,0.00,,,0.00,WeatherCatV1.15B25,2013-04-11 12:37:00,
2013-04-11 05:42:00,49.5,41.2,29.91,NNW,337,2.0,4.0,73,0.00,,,0.00,WeatherCatV1.15B25,2013-04-11 12:42:00,
2013-04-11 05:47:00,48.9,40.6,29.91,NNW,338,0.0,0.0,73,0.00,,,0.00,WeatherCatV1.15B25,2013-04-11 12:47:00,
2013-04-11 05:52:00,48.7,40.8,29.91,NNW,336,0.0,1.0,74,0.00,,,0.00,WeatherCatV1.15B25,2013-04-11 12:52:00,
2013-04-11 05:57:00,48.5,40.6,29.91,NNW,336,0.0,0.0,74,0.00,,,0.00,WeatherCatV1.15B25,2013-04-11 12:57:00,
2013-04-11 06:02:00,48.3,40.4,29.91,NNW,336,0.0,0.0,74,0.00,,,0.00,WeatherCatV1.15B25,2013-04-11 13:02:00,
2013-04-11 06:07:00,48.0,40.1,29.91,NNW,329,1.0,3.0,74,0.00,,,0.00,WeatherCatV1.15B25,2013-04-11 13:07:00,
2013-04-11 06:12:00,47.8,39.9,29.91,NNW,330,1.0,1.0,74,0.00,,,0.00,WeatherCatV1.15B25,2013-04-11 13:12:00,
2013-04-11 06:17:00,47.8,39.9,29.91,NNW,337,2.0,2.0,74,0.00,,,0.00,WeatherCatV1.15B25,2013-04-11 13:17:00,
2013-04-11 06:22:00,47.6,40.1,29.91,NNW,337,3.0,4.0,75,0.00,,,0.00,WeatherCatV1.15B25,2013-04-11 13:22:00,
2013-04-11 06:27:00,47.4,40.6,29.91,NNW,338,1.0,6.0,77,0.00,,,0.00,WeatherCatV1.15B25,2013-04-11 13:27:00,
2013-04-11 06:32:00,47.2,40.7,29.91,NNW,333,0.0,2.0,78,0.00,,,0.00,WeatherCatV1.15B25,2013-04-11 13:32:00,
2013-04-11 06:37:00,47.0,40.8,29.91,NNW,334,0.0,1.0,79,0.00,,,0.00,WeatherCatV1.15B25,2013-04-11 13:37:00,
2013-04-11 06:42:00,47.0,40.8,29.91,SW,231,0.0,0.0,79,0.00,,,0.00,WeatherCatV1.15B25,2013-04-11 13:42:00,
2013-04-11 06:47:00,46.9,41.1,29.92,SW,231,0.0,0.0,80,0.00,,,0.00,WeatherCatV1.15B25,2013-04-11 13:47:00,
2013-04-11 06:52:00,46.9,41.1,29.92,SW,231,0.0,0.0,80,0.00,,,0.00,WeatherCatV1.15B25,2013-04-11 13:52:00,
2013-04-11 06:57:00,46.8,41.0,29.92,SW,231,0.0,0.0,80,0.00,,,0.00,WeatherCatV1.15B25,2013-04-11 13:57:00,
2013-04-11 07:02:00,46.7,40.9,29.91,SW,231,0.0,0.0,80,0.00,,,0.00,WeatherCatV1.15B25,2013-04-11 14:02:00,
2013-04-11 07:07:00,46.6,41.4,29.91,SW,231,0.0,0.0,82,0.00,,,0.00,WeatherCatV1.15B25,2013-04-11 14:07:00,
2013-04-11 07:12:00,46.6,41.7,29.91,SW,231,0.0,0.0,83,0.00,,,0.00,WeatherCatV1.15B25,2013-04-11 14:12:00,
2013-04-11 07:17:00,46.5,41.9,29.91,SW,231,0.0,0.0,84,0.00,,,0.00,WeatherCatV1.15B25,2013-04-11 14:17:00,
2013-04-11 07:22:00,46.5,41.9,29.91,SW,231,0.0,0.0,84,0.00,,,0.00,WeatherCatV1.15B25,2013-04-11 14:22:00,
2013-04-11 07:27:00,46.5,41.6,29.91,SW,231,0.0,0.0,83,0.00,,,0.00,WeatherCatV1.15B25,2013-04-11 14:27:00,
2013-04-11 07:32:00,46.6,41.4,29.92,SW,231,0.0,0.0,82,0.00,,,0.00,WeatherCatV1.15B25,2013-04-11 14:32:00,
2013-04-11 07:37:00,46.7,41.5,29.92,SW,231,0.0,0.0,82,0.00,,,0.00,WeatherCatV1.15B25,2013-04-11 14:37:00,
2013-04-11 07:42:00,46.9,42.0,29.92,SW,231,0.0,0.0,83,0.00,,,0.00,WeatherCatV1.15B25,2013-04-11 14:42:00,
2013-04-11 07:47:00,47.0,42.4,29.92,SW,231,0.0,0.0,84,0.00,,,0.00,WeatherCatV1.15B25,2013-04-11 14:47:00,
2013-04-11 07:52:00,47.2,42.3,29.92,SW,231,0.0,0.0,83,0.00,,,0.00,WeatherCatV1.15B25,2013-04-11 14:52:00,
2013-04-11 07:57:00,47.3,42.1,29.92,SW,231,0.0,0.0,82,0.00,,,0.00,WeatherCatV1.15B25,2013-04-11 14:57:00,
2013-04-11 08:02:00,47.6,42.4,29.92,SW,229,0.0,0.0,82,0.00,,,0.00,WeatherCatV1.15B25,2013-04-11 15:02:00,
2013-04-11 08:07:00,47.9,42.7,29.92,NW,326,1.0,2.0,82,0.00,,,0.00,WeatherCatV1.15B25,2013-04-11 15:07:00,
2013-04-11 08:12:00,48.2,43.0,29.92,NNW,327,0.0,1.0,82,0.00,,,0.00,WeatherCatV1.15B25,2013-04-11 15:12:00,
2013-04-11 08:17:00,48.6,43.4,29.92,NNW,331,1.0,2.0,82,0.00,,,0.00,WeatherCatV1.15B25,2013-04-11 15:17:00,
2013-04-11 08:22:00,49.3,43.1,29.92,NNW,340,1.0,3.0,79,0.00,,,0.00,WeatherCatV1.15B25,2013-04-11 15:22:00,
2013-04-11 08:27:00,50.1,44.8,29.92,ESE,118,1.0,1.0,82,0.00,,,0.00,WeatherCatV1.15B25,2013-04-11 15:27:00,
2013-04-11 08:32:00,50.4,45.1,29.92,ESE,118,0.0,0.0,82,0.00,,,0.00,WeatherCatV1.15B25,2013-04-11 15:32:00,
2013-04-11 08:37:00,50.6,45.6,29.92,ESE,118,0.0,0.0,83,0.00,,,0.00,WeatherCatV1.15B25,2013-04-11 15:37:00,
2013-04-11 08:42:00,50.8,45.5,29.92,ESE,118,0.0,0.0,82,0.00,,,0.00,WeatherCatV1.15B25,2013-04-11 15:42:00,
2013-04-11 08:47:00,51.1,45.8,29.92,ESE,119,0.0,0.0,82,0.00,,,0.00,WeatherCatV1.15B25,2013-04-11 15:47:00,
2013-04-11 08:52:00,51.3,45.7,29.92,SE,139,0.0,1.0,81,0.00,,,0.00,WeatherCatV1.15B25,2013-04-11 15:52:00,
2013-04-11 08:57:00,51.4,45.8,29.92,SE,139,0.0,1.0,81,0.00,,,0.00,WeatherCatV1.15B25,2013-04-11 15:57:00,
2013-04-11 09:02:00,51.6,45.6,29.92,SE,142,0.0,0.0,80,0.00,,,0.00,WeatherCatV1.15B25,2013-04-11 16:02:00,
2013-04-11 09:07:00,51.7,46.1,29.92,SE,142,0.0,0.0,81,0.00,,,0.00,WeatherCatV1.15B25,2013-04-11 16:07:00,
2013-04-11 09:12:00,51.9,45.9,29.92,SSE,167,0.0,1.0,80,0.00,,,0.00,WeatherCatV1.15B25,2013-04-11 16:12:00,
2013-04-11 09:17:00,52.0,46.4,29.92,SSE,150,2.0,2.0,81,0.00,,,0.00,WeatherCatV1.15B25,2013-04-11 16:17:00,
2013-04-11 09:22:00,52.2,46.2,29.92,SE,146,0.0,2.0,80,0.00,,,0.00,WeatherCatV1.15B25,2013-04-11 16:22:00,
2013-04-11 09:27:00,52.5,46.5,29.92,SE,140,1.0,2.0,80,0.00,,,0.00,WeatherCatV1.15B25,2013-04-11 16:27:00,
2013-04-11 09:32:00,52.7,46.7,29.92,SSE,150,0.0,1.0,80,0.00,,,0.00,WeatherCatV1.15B25,2013-04-11 16:32:00,
2013-04-11 09:37:00,53.1,46.8,29.92,SSE,154,0.0,0.0,79,0.00,,,0.00,WeatherCatV1.15B25,2013-04-11 16:37:00,
2013-04-11 09:42:00,53.5,47.1,29.92,SSE,162,0.0,0.0,79,0.00,,,0.00,WeatherCatV1.15B25,2013-04-11 16:42:00,
2013-04-11 09:47:00,53.8,47.4,29.92,SSE,162,1.0,1.0,79,0.00,,,0.00,WeatherCatV1.15B25,2013-04-11 16:47:00,
2013-04-11 09:52:00,54.3,47.2,29.92,SE,138,0.0,0.0,77,0.00,,,0.00,WeatherCatV1.15B25,2013-04-11 16:52:00,
2013-04-11 09:57:00,54.6,47.2,29.92,SE,138,1.0,1.0,76,0.00,,,0.00,WeatherCatV1.15B25,2013-04-11 16:57:00,
2013-04-11 10:02:00,54.8,47.7,29.92,SSE,152,0.0,1.0,77,0.00,,,0.00,WeatherCatV1.15B25,2013-04-11 17:02:00,
2013-04-11 10:07:00,55.3,47.9,29.92,SSE,153,0.0,0.0,76,0.00,,,0.00,WeatherCatV1.15B25,2013-04-11 17:07:00,
2013-04-11 10:12:00,55.9,47.7,29.92,SSE,152,0.0,3.0,74,0.00,,,0.00,WeatherCatV1.15B25,2013-04-11 17:12:00,
2013-04-11 10:17:00,56.5,48.7,29.92,SSE,148,0.0,0.0,75,0.00,,,0.00,WeatherCatV1.15B25,2013-04-11 17:17:00,
2013-04-11 10:22:00,56.9,46.4,29.92,NE,53,0.0,0.0,68,0.00,,,0.00,WeatherCatV1.15B25,2013-04-11 17:22:00,
2013-04-11 10:27:00,57.2,46.7,29.92,SSE,153,1.0,1.0,68,0.00,,,0.00,WeatherCatV1.15B25,2013-04-11 17:27:00,
2013-04-11 10:32:00,57.6,48.6,29.93,SSE,158,1.0,2.0,72,0.00,,,0.00,WeatherCatV1.15B25,2013-04-11 17:32:00,
2013-04-11 10:37:00,58.0,47.5,29.93,NW,323,1.0,6.0,68,0.00,,,0.00,WeatherCatV1.15B25,2013-04-11 17:37:00,
2013-04-11 10:42:00,58.6,48.8,29.93,SE,146,1.0,2.0,70,0.00,,,0.00,WeatherCatV1.15B25,2013-04-11 17:42:00,
2013-04-11 10:47:00,59.3,49.9,29.93,SSE,161,0.0,1.0,71,0.00,,,0.00,WeatherCatV1.15B25,2013-04-11 17:47:00,
2013-04-11 10:52:00,60.0,49.4,29.93,SE,137,0.0,2.0,68,0.00,,,0.00,WeatherCatV1.15B25,2013-04-11 17:52:00,
2013-04-11 10:57:00,60.4,50.2,29.93,SE,140,0.0,1.0,69,0.00,,,0.00,WeatherCatV1.15B25,2013-04-11 17:57:00,
2013-04-11 11:02:00,60.9,49.9,29.94,SE,142,0.0,1.0,67,0.00,,,0.00,WeatherCatV1.15B25,2013-04-11 18:02:00,
2013-04-11 11:07:00,61.3,45.5,29.94,NNW,337,0.0,5.0,56,0.00,,,0.00,WeatherCatV1.15B25,2013-04-11 18:07:00,
2013-04-11 11:12:00,61.5,44.7,29.94,NW,326,0.0,6.0,54,0.00,,,0.00,WeatherCatV1.15B25,2013-04-11 18:12:00,
2013-04-11 11:17:00,61.7,44.4,29.93,SE,146,0.0,3.0,53,0.00,,,0.00,WeatherCatV1.15B25,2013-04-11 18:17:00,
2013-04-11 11:22:00,61.9,43.1,29.93,NNW,336,3.0,3.0,50,0.00,,,0.00,WeatherCatV1.15B25,2013-04-11 18:22:00,
2013-04-11 11:27:00,61.6,41.7,29.93,NE,44,0.0,2.0,48,0.00,,,0.00,WeatherCatV1.15B25,2013-04-11 18:27:00,
2013-04-11 11:32:00,61.2,41.9,29.93,North,9,5.0,8.0,49,0.00,,,0.00,WeatherCatV1.15B25,2013-04-11 18:32:00,
2013-04-11 11:37:00,60.8,40.4,29.93,North,350,6.0,8.0,47,0.00,,,0.00,WeatherCatV1.15B25,2013-04-11 18:37:00,
2013-04-11 11:42:00,60.7,40.3,29.93,NNW,347,5.0,7.0,47,0.00,,,0.00,WeatherCatV1.15B25,2013-04-11 18:42:00,
2013-04-11 11:47:00,61.0,40.6,29.92,North,7,0.0,5.0,47,0.00,,,0.00,WeatherCatV1.15B25,2013-04-11 18:47:00,
2013-04-11 11:52:00,61.3,39.2,29.92,NNW,336,3.0,6.0,44,0.00,,,0.00,WeatherCatV1.15B25,2013-04-11 18:52:00,
2013-04-11 11:57:00,61.3,38.0,29.92,NNW,337,5.0,6.0,42,0.00,,,0.00,WeatherCatV1.15B25,2013-04-11 18:57:00,
2013-04-11 12:02:00,61.3,38.0,29.92,NNW,338,5.0,10.0,42,0.00,,,0.00,WeatherCatV1.15B25,2013-04-11 19:02:00,
2013-04-11 12:07:00,61.6,38.3,29.92,NNW,344,1.0,3.0,42,0.00,,,0.00,WeatherCatV1.15B25,2013-04-11 19:07:00,
2013-04-11 12:12:00,61.9,37.9,29.92,NNW,342,5.0,5.0,41,0.00,,,0.00,WeatherCatV1.15B25,2013-04-11 19:12:00,
2013-04-11 12:17:00,62.2,38.2,29.92,NNW,333,4.0,9.0,41,0.00,,,0.00,WeatherCatV1.15B25,2013-04-11 19:17:00,
2013-04-11 12:22:00,62.0,37.4,29.92,NW,323,5.0,6.0,40,0.00,,,0.00,WeatherCatV1.15B25,2013-04-11 19:22:00,
2013-04-11 12:27:00,62.1,36.8,29.92,North,2,2.0,6.0,39,0.00,,,0.00,WeatherCatV1.15B25,2013-04-11 19:27:00,
2013-04-11 12:32:00,62.0,38.6,29.92,North,356,1.0,3.0,42,0.00,,,0.00,WeatherCatV1.15B25,2013-04-11 19:32:00,
2013-04-11 12:37:00,61.5,38.2,29.92,NE,35,0.0,8.0,42,0.00,,,0.00,WeatherCatV1.15B25,2013-04-11 19:37:00,
2013-04-11 12:42:00,61.4,39.3,29.92,NE,36,0.0,6.0,44,0.00,,,0.00,WeatherCatV1.15B25,2013-04-11 19:42:00,
2013-04-11 12:47:00,61.9,39.2,29.91,NNW,341,3.0,6.0,43,0.00,,,0.00,WeatherCatV1.15B25,2013-04-11 19:47:00,
2013-04-11 12:52:00,62.3,38.3,29.91,North,4,0.0,9.0,41,0.00,,,0.00,WeatherCatV1.15B25,2013-04-11 19:52:00,
2013-04-11 12:57:00,62.5,39.1,29.91,NNW,337,3.0,5.0,42,0.00,,,0.00,WeatherCatV1.15B25,2013-04-11 19:57:00,
2013-04-11 13:02:00,63.0,38.9,29.90,East,86,3.0,6.0,41,0.00,,,0.00,WeatherCatV1.15B25,2013-04-11 20:02:00,
2013-04-11 13:07:00,63.1,39.6,29.90,NNE,32,0.0,4.0,42,0.00,,,0.00,WeatherCatV1.15B25,2013-04-11 20:07:00,
2013-04-11 13:12:00,63.0,41.3,29.90,NNW,345,3.0,5.0,45,0.00,,,0.00,WeatherCatV1.15B25,2013-04-11 20:12:00,
2013-04-11 13:17:00,63.3,39.2,29.89,ESE,117,1.0,5.0,41,0.00,,,0.00,WeatherCatV1.15B25,2013-04-11 20:17:00,
2013-04-11 13:22:00,63.8,42.0,29.89,NNE,18,1.0,2.0,45,0.00,,,0.00,WeatherCatV1.15B25,2013-04-11 20:22:00,
2013-04-11 13:27:00,64.4,40.8,29.89,North,349,3.0,5.0,42,0.00,,,0.00,WeatherCatV1.15B25,2013-04-11 20:27:00,
2013-04-11 13:32:00,64.3,41.9,29.89,NNW,328,2.0,6.0,44,0.00,,,0.00,WeatherCatV1.15B25,2013-04-11 20:32:00,
2013-04-11 13:37:00,63.9,40.4,29.89,NNW,336,0.0,6.0,42,0.00,,,0.00,WeatherCatV1.15B25,2013-04-11 20:37:00,
2013-04-11 13:42:00,63.5,41.2,29.89,NNW,347,0.0,2.0,44,0.00,,,0.00,WeatherCatV1.15B25,2013-04-11 20:42:00,
2013-04-11 13:47:00,63.1,41.4,29.89,NNW,345,3.0,3.0,45,0.00,,,0.00,WeatherCatV1.15B25,2013-04-11 20:47:00,
2013-04-11 13:52:00,62.8,40.0,29.89,NNW,339,2.0,3.0,43,0.00,,,0.00,WeatherCatV1.15B25,2013-04-11 20:52:00,
2013-04-11 13:57:00,62.5,39.7,29.89,NNW,339,1.0,3.0,43,0.00,,,0.00,WeatherCatV1.15B25,2013-04-11 20:57:00,
2013-04-11 14:02:00,62.2,40.0,29.88,NE,37,0.0,4.0,44,0.00,,,0.00,WeatherCatV1.15B25,2013-04-11 21:02:00,
2013-04-11 14:07:00,62.0,40.4,29.88,NW,323,2.0,3.0,45,0.00,,,0.00,WeatherCatV1.15B25,2013-04-11 21:07:00,
2013-04-11 14:12:00,62.0,39.8,29.88,North,355,1.0,3.0,44,0.00,,,0.00,WeatherCatV1.15B25,2013-04-11 21:12:00,
2013-04-11 14:17:00,61.9,40.9,29.86,NNW,348,1.0,1.0,46,0.00,,,0.00,WeatherCatV1.15B25,2013-04-11 21:17:00,
2013-04-11 14:22:00,61.9,40.9,29.86,NNW,327,0.0,2.0,46,0.00,,,0.00,WeatherCatV1.15B25,2013-04-11 21:22:00,
2013-04-11 14:27:00,62.2,40.6,29.86,NNW,348,0.0,2.0,45,0.00,,,0.00,WeatherCatV1.15B25,2013-04-11 21:27:00,
2013-04-11 14:32:00,62.5,41.4,29.86,NNE,15,0.0,2.0,46,0.00,,,0.00,WeatherCatV1.15B25,2013-04-11 21:32:00,
2013-04-11 14:37:00,62.8,42.3,29.86,NNE,23,0.0,1.0,47,0.00,,,0.00,WeatherCatV1.15B25,2013-04-11 21:37:00,
2013-04-11 14:42:00,63.2,42.6,29.86,North,3,1.0,4.0,47,0.00,,,0.00,WeatherCatV1.15B25,2013-04-11 21:42:00,
2013-04-11 14:47:00,63.6,42.4,29.86,NNW,340,0.0,2.0,46,0.00,,,0.00,WeatherCatV1.15B25,2013-04-11 21:47:00,
2013-04-11 14:52:00,63.9,42.1,29.86,NNW,335,6.0,6.0,45,0.00,,,0.00,WeatherCatV1.15B25,2013-04-11 21:52:00,
2013-04-11 14:57:00,64.0,42.8,29.86,NNW,331,2.0,2.0,46,0.00,,,0.00,WeatherCatV1.15B25,2013-04-11 21:57:00,
2013-04-11 15:02:00,64.2,43.0,29.86,NE,50,0.0,2.0,46,0.00,,,0.00,WeatherCatV1.15B25,2013-04-11 22:02:00,
2013-04-11 15:07:00,64.5,42.7,29.86,ENE,64,0.0,1.0,45,0.00,,,0.00,WeatherCatV1.15B25,2013-04-11 22:07:00,
2013-04-11 15:12:00,64.5,42.7,29.86,North,349,0.0,4.0,45,0.00,,,0.00,WeatherCatV1.15B25,2013-04-11 22:12:00,
2013-04-11 15:17:00,64.3,43.6,29.86,NNW,348,0.0,1.0,47,0.00,,,0.00,WeatherCatV1.15B25,2013-04-11 22:17:00,
2013-04-11 15:22:00,64.2,43.5,29.86,North,5,2.0,5.0,47,0.00,,,0.00,WeatherCatV1.15B25,2013-04-11 22:22:00,
2013-04-11 15:27:00,64.1,44.0,29.86,NNE,18,0.0,3.0,48,0.00,,,0.00,WeatherCatV1.15B25,2013-04-11 22:27:00,
2013-04-11 15:32:00,64.1,44.0,29.85,NNE,17,0.0,1.0,48,0.00,,,0.00,WeatherCatV1.15B25,2013-04-11 22:32:00,
2013-04-11 15:37:00,64.0,43.9,29.85,NNW,329,4.0,5.0,48,0.00,,,0.00,WeatherCatV1.15B25,2013-04-11 22:37:00,
2013-04-11 15:42:00,63.6,43.5,29.85,North,352,2.0,4.0,48,0.00,,,0.00,WeatherCatV1.15B25,2013-04-11 22:42:00,
2013-04-11 15:47:00,63.2,43.7,29.85,North,356,3.0,4.0,49,0.00,,,0.00,WeatherCatV1.15B25,2013-04-11 22:47:00,
2013-04-11 15:52:00,63.0,43.5,29.85,NNW,339,1.0,7.0,49,0.00,,,0.00,WeatherCatV1.15B25,2013-04-11 22:52:00,
2013-04-11 15:57:00,63.1,44.2,29.85,NNW,337,0.0,2.0,50,0.00,,,0.00,WeatherCatV1.15B25,2013-04-11 22:57:00,
2013-04-11 16:02:00,63.1,44.7,29.84,North,349,1.0,4.0,51,0.00,,,0.00,WeatherCatV1.15B25,2013-04-11 23:02:00,
2013-04-11 16:07:00,63.4,45.5,29.84,NNW,341,0.0,2.0,52,0.00,,,0.00,WeatherCatV1.15B25,2013-04-11 23:07:00,
2013-04-11 16:12:00,63.6,45.6,29.84,NNW,346,2.0,6.0,52,0.00,,,0.00,WeatherCatV1.15B25,2013-04-11 23:12:00,
2013-04-11 16:17:00,63.6,45.6,29.84,South,173,0.0,5.0,52,0.00,,,0.00,WeatherCatV1.15B25,2013-04-11 23:17:00,
2013-04-11 16:22:00,63.8,47.3,29.84,ENE,59,0.0,2.0,55,0.00,,,0.00,WeatherCatV1.15B25,2013-04-11 23:22:00,
2013-04-11 16:27:00,63.9,46.9,29.84,NNW,333,0.0,5.0,54,0.00,,,0.00,WeatherCatV1.15B25,2013-04-11 23:27:00,
2013-04-11 16:32:00,64.0,47.0,29.83,North,349,0.0,4.0,54,0.00,,,0.00,WeatherCatV1.15B25,2013-04-11 23:32:00,
2013-04-11 16:37:00,64.1,47.1,29.83,ESE,123,0.0,0.0,54,0.00,,,0.00,WeatherCatV1.15B25,2013-04-11 23:37:00,
2013-04-11 16:42:00,64.2,47.2,29.83,North,357,0.0,0.0,54,0.00,,,0.00,WeatherCatV1.15B25,2013-04-11 23:42:00,
2013-04-11 16:47:00,64.0,46.5,29.83,NNW,329,3.0,4.0,53,0.00,,,0.00,WeatherCatV1.15B25,2013-04-11 23:47:00,
2013-04-11 16:52:00,63.8,46.8,29.83,NNW,340,3.0,3.0,54,0.00,,,0.00,WeatherCatV1.15B25,2013-04-11 23:52:00,
2013-04-11 16:57:00,63.8,46.8,29.83,North,10,1.0,1.0,54,0.00,,,0.00,WeatherCatV1.15B25,2013-04-11 23:57:00,
2013-04-11 17:02:00,63.8,46.8,29.82,East,100,0.0,2.0,54,0.00,,,0.00,WeatherCatV1.15B25,2013-04-12 00:02:00,
2013-04-11 17:07:00,63.7,46.7,29.82,North,8,0.0,1.0,54,0.00,,,0.00,WeatherCatV1.15B25,2013-04-12 00:07:00,
2013-04-11 17:12:00,63.4,46.5,29.82,East,79,0.0,0.0,54,0.00,,,0.00,WeatherCatV1.15B25,2013-04-12 00:12:00,
2013-04-11 17:18:00,63.2,46.8,29.82,SSE,157,0.0,0.0,55,0.00,,,0.00,WeatherCatV1.15B25,2013-04-12 00:18:00,
2013-04-11 17:23:00,63.1,47.1,29.82,NNE,17,0.0,2.0,56,0.00,,,0.00,WeatherCatV1.15B25,2013-04-12 00:23:00,
2013-04-11 17:28:00,63.1,46.2,29.82,NNW,337,0.0,0.0,54,0.00,,,0.00,WeatherCatV1.15B25,2013-04-12 00:28:00,
2013-04-11 17:33:00,63.0,46.1,29.82,NNW,341,1.0,5.0,54,0.00,,,0.00,WeatherCatV1.15B25,2013-04-12 00:33:00,
2013-04-11 17:38:00,62.9,46.5,29.82,North,10,1.0,2.0,55,0.00,,,0.00,WeatherCatV1.15B25,2013-04-12 00:38:00,
2013-04-11 17:43:00,62.8,45.9,29.82,NNW,338,1.0,3.0,54,0.00,,,0.00,WeatherCatV1.15B25,2013-04-12 00:43:00,
2013-04-11 17:48:00,62.7,45.3,29.82,NNW,335,0.0,3.0,53,0.00,,,0.00,WeatherCatV1.15B25,2013-04-12 00:48:00,
2013-04-11 17:53:00,62.7,45.3,29.82,NNW,334,0.0,1.0,53,0.00,,,0.00,WeatherCatV1.15B25,2013-04-12 00:53:00,
2013-04-11 17:58:00,62.6,45.2,29.82,NNW,346,1.0,4.0,53,0.00,,,0.00,WeatherCatV1.15B25,2013-04-12 00:58:00,
2013-04-11 18:03:00,62.5,45.1,29.82,North,0,1.0,2.0,53,0.00,,,0.00,WeatherCatV1.15B25,2013-04-12 01:03:00,
2013-04-11 18:08:00,62.4,45.0,29.82,NE,47,0.0,0.0,53,0.00,,,0.00,WeatherCatV1.15B25,2013-04-12 01:08:00,
2013-04-11 18:13:00,62.3,44.4,29.82,NE,50,0.0,0.0,52,0.00,,,0.00,WeatherCatV1.15B25,2013-04-12 01:13:00,
2013-04-11 18:18:00,62.1,43.8,29.82,NNW,335,0.0,1.0,51,0.00,,,0.00,WeatherCatV1.15B25,2013-04-12 01:18:00,
2013-04-11 18:23:00,61.9,44.1,29.82,NNW,337,1.0,1.0,52,0.00,,,0.00,WeatherCatV1.15B25,2013-04-12 01:23:00,
2013-04-11 18:28:00,61.7,46.3,29.82,NNE,31,0.0,1.0,57,0.00,,,0.00,WeatherCatV1.15B25,2013-04-12 01:28:00,
2013-04-11 18:33:00,61.6,48.0,29.82,ENE,64,0.0,0.0,61,0.00,,,0.00,WeatherCatV1.15B25,2013-04-12 01:33:00,
2013-04-11 18:38:00,61.4,49.1,29.82,ENE,64,0.0,0.0,64,0.00,,,0.00,WeatherCatV1.15B25,2013-04-12 01:38:00,
2013-04-11 18:43:00,61.0,49.1,29.82,ENE,64,0.0,0.0,65,0.00,,,0.00,WeatherCatV1.15B25,2013-04-12 01:43:00,
2013-04-11 18:48:00,60.5,49.1,29.82,East,98,0.0,0.0,66,0.00,,,0.00,WeatherCatV1.15B25,2013-04-12 01:48:00,
2013-04-11 18:53:00,60.0,49.4,29.82,East,98,0.0,0.0,68,0.00,,,0.00,WeatherCatV1.15B25,2013-04-12 01:53:00,
2013-04-11 18:58:00,59.4,48.8,29.82,East,98,0.0,0.0,68,0.00,,,0.00,WeatherCatV1.15B25,2013-04-12 01:58:00,
2013-04-11 19:03:00,59.0,49.2,29.82,East,98,0.0,0.0,70,0.00,,,0.00,WeatherCatV1.15B25,2013-04-12 02:03:00,
2013-04-11 19:08:00,58.6,49.6,29.82,East,98,0.0,0.0,72,0.00,,,0.00,WeatherCatV1.15B25,2013-04-12 02:08:00,
2013-04-11 19:13:00,58.4,49.0,29.82,East,98,0.0,0.0,71,0.00,,,0.00,WeatherCatV1.15B25,2013-04-12 02:13:00,
2013-04-11 19:18:00,58.2,49.2,29.81,East,98,0.0,0.0,72,0.00,,,0.00,WeatherCatV1.15B25,2013-04-12 02:18:00,
2013-04-11 19:23:00,58.0,48.6,29.81,East,98,0.0,0.0,71,0.00,,,0.00,WeatherCatV1.15B25,2013-04-12 02:23:00,
2013-04-11 19:28:00,57.8,48.8,29.81,East,98,0.0,0.0,72,0.00,,,0.00,WeatherCatV1.15B25,2013-04-12 02:28:00,
2013-04-11 19:33:00,57.6,49.0,29.81,East,98,0.0,0.0,73,0.00,,,0.00,WeatherCatV1.15B25,2013-04-12 02:33:00,
2013-04-11 19:38:00,57.3,48.7,29.81,East,98,0.0,0.0,73,0.00,,,0.00,WeatherCatV1.15B25,2013-04-12 02:38:00,
2013-04-11 19:43:00,56.9,48.7,29.81,East,98,0.0,0.0,74,0.00,,,0.00,WeatherCatV1.15B25,2013-04-12 02:43:00,
2013-04-11 19:48:00,56.5,48.7,29.81,East,98,0.0,0.0,75,0.00,,,0.00,WeatherCatV1.15B25,2013-04-12 02:48:00,
2013-04-11 19:53:00,56.2,48.4,29.81,East,98,0.0,0.0,75,0.00,,,0.00,WeatherCatV1.15B25,2013-04-12 02:53:00,
2013-04-11 19:58:00,56.0,48.2,29.81,East,98,0.0,0.0,75,0.00,,,0.00,WeatherCatV1.15B25,2013-04-12 02:58:00,
2013-04-11 20:03:00,55.8,48.3,29.81,East,98,0.0,0.0,76,0.00,,,0.00,WeatherCatV1.15B25,2013-04-12 03:03:00,
2013-04-11 20:08:00,55.5,48.4,29.81,East,98,0.0,0.0,77,0.00,,,0.00,WeatherCatV1.15B25,2013-04-12 03:08:00,
2013-04-11 20:13:00,55.3,48.2,29.81,East,98,0.0,0.0,77,0.00,,,0.00,WeatherCatV1.15B25,2013-04-12 03:13:00,
2013-04-11 20:18:00,55.1,47.7,29.82,East,98,0.0,0.0,76,0.00,,,0.00,WeatherCatV1.15B25,2013-04-12 03:18:00,
2013-04-11 20:23:00,55.0,47.9,29.82,East,98,0.0,0.0,77,0.00,,,0.00,WeatherCatV1.15B25,2013-04-12 03:23:00,
2013-04-11 20:28:00,54.8,48.1,29.82,East,98,0.0,0.0,78,0.00,,,0.00,WeatherCatV1.15B25,2013-04-12 03:28:00,
2013-04-11 20:33:00,54.5,47.4,29.82,East,98,0.0,0.0,77,0.00,,,0.00,WeatherCatV1.15B25,2013-04-12 03:33:00,
2013-04-11 20:38:00,54.1,47.4,29.82,East,98,0.0,0.0,78,0.00,,,0.00,WeatherCatV1.15B25,2013-04-12 03:38:00,
2013-04-11 20:43:00,53.7,47.7,29.82,East,98,0.0,0.0,80,0.00,,,0.00,WeatherCatV1.15B25,2013-04-12 03:43:00,
2013-04-11 20:48:00,53.2,47.8,29.82,East,90,1.0,1.0,82,0.00,,,0.00,WeatherCatV1.15B25,2013-04-12 03:48:00,
2013-04-11 20:53:00,52.6,47.9,29.82,NNE,18,0.0,1.0,84,0.00,,,0.00,WeatherCatV1.15B25,2013-04-12 03:53:00,
2013-04-11 20:58:00,52.3,47.6,29.82,NNE,18,0.0,0.0,84,0.00,,,0.00,WeatherCatV1.15B25,2013-04-12 03:58:00,
2013-04-11 21:00:00,52.2,47.5,29.81,NNE,18,0.0,0.0,84,0.00,,,0.00,WeatherCatV1.15B25,2013-04-12 04:00:00,
2013-04-11 21:05:00,52.1,47.4,29.81,NNE,18,0.0,0.0,84,0.00,,,0.00,WeatherCatV1.15B25,2013-04-12 04:05:00,
2013-04-11 21:06:00,52.1,47.4,29.81,NNE,18,0.0,0.0,84,0.00,,,0.00,WeatherCatV1.15B25,2013-04-12 04:06:00,
2013-04-11 21:11:00,51.8,46.8,29.81,NNE,18,0.0,0.0,83,0.00,,,0.00,WeatherCatV1.15B25,2013-04-12 04:11:00,
2013-04-11 21:16:00,51.7,46.7,29.81,NNE,31,0.0,0.0,83,0.00,,,0.00,WeatherCatV1.15B25,2013-04-12 04:16:00,
2013-04-11 21:21:00,51.5,46.5,29.81,NNE,30,0.0,1.0,83,0.00,,,0.00,WeatherCatV1.15B25,2013-04-12 04:21:00,
2013-04-11 21:26:00,51.4,46.7,29.81,NNE,31,0.0,0.0,84,0.00,,,0.00,WeatherCatV1.15B25,2013-04-12 04:26:00,
2013-04-11 21:31:00,51.2,46.5,29.81,NNE,31,0.0,0.0,84,0.00,,,0.00,WeatherCatV1.15B25,2013-04-12 04:31:00,
2013-04-11 21:36:00,51.0,46.3,29.81,NNE,31,0.0,0.0,84,0.00,,,0.00,WeatherCatV1.15B25,2013-04-12 04:36:00,
2013-04-11 21:41:00,50.8,46.5,29.81,NNE,31,0.0,0.0,85,0.00,,,0.00,WeatherCatV1.15B25,2013-04-12 04:41:00,
2013-04-11 21:46:00,50.6,46.3,29.82,NNE,31,0.0,0.0,85,0.00,,,0.00,WeatherCatV1.15B25,2013-04-12 04:46:00,
2013-04-11 21:51:00,50.4,46.1,29.82,NNE,31,0.0,0.0,85,0.00,,,0.00,WeatherCatV1.15B25,2013-04-12 04:51:00,
2013-04-11 21:56:00,50.3,46.6,29.82,NNE,31,0.0,0.0,87,0.00,,,0.00,WeatherCatV1.15B25,2013-04-12 04:56:00,
2013-04-11 22:01:00,50.0,46.0,29.83,NNE,30,0.0,0.0,86,0.00,,,0.00,WeatherCatV1.15B25,2013-04-12 05:01:00,
2013-04-11 22:06:00,49.8,46.1,29.83,NNE,30,0.0,0.0,87,0.00,,,0.00,WeatherCatV1.15B25,2013-04-12 05:06:00,
2013-04-11 22:11:00,49.3,45.6,29.83,NNE,30,0.0,0.0,87,0.00,,,0.00,WeatherCatV1.15B25,2013-04-12 05:11:00,
2013-04-11 22:16:00,48.8,45.4,29.82,NNW,334,0.0,3.0,88,0.00,,,0.00,WeatherCatV1.15B25,2013-04-12 05:16:00,
2013-04-11 22:21:00,48.6,45.5,29.82,NNW,334,1.0,2.0,89,0.00,,,0.00,WeatherCatV1.15B25,2013-04-12 05:21:00,
2013-04-11 22:26:00,48.5,45.1,29.82,NNW,335,0.0,0.0,88,0.00,,,0.00,WeatherCatV1.15B25,2013-04-12 05:26:00,
2013-04-11 22:31:00,48.6,43.7,29.82,NNW,335,0.0,0.0,83,0.00,,,0.00,WeatherCatV1.15B25,2013-04-12 05:31:00,
2013-04-11 22:36:00,49.0,43.1,29.82,NNW,335,0.0,0.0,80,0.00,,,0.00,WeatherCatV1.15B25,2013-04-12 05:36:00,
2013-04-11 22:41:00,49.4,43.8,29.82,NNW,335,0.0,0.0,81,0.00,,,0.00,WeatherCatV1.15B25,2013-04-12 05:41:00,
2013-04-11 22:46:00,49.6,44.0,29.83,NNW,335,1.0,1.0,81,0.00,,,0.00,WeatherCatV1.15B25,2013-04-12 05:46:00,
2013-04-11 22:51:00,49.9,43.3,29.83,NNW,335,0.0,0.0,78,0.00,,,0.00,WeatherCatV1.15B25,2013-04-12 05:51:00,
2013-04-11 22:56:00,50.1,43.8,29.83,NNW,335,0.0,0.0,79,0.00,,,0.00,WeatherCatV1.15B25,2013-04-12 05:56:00,
2013-04-11 23:01:00,50.2,43.6,29.82,NNW,335,0.0,1.0,78,0.00,,,0.00,WeatherCatV1.15B25,2013-04-12 06:01:00,
2013-04-11 23:06:00,50.2,43.3,29.82,NNW,335,0.0,0.0,77,0.00,,,0.00,WeatherCatV1.15B25,2013-04-12 06:06:00,
2013-04-11 23:11:00,50.3,43.7,29.82,NNW,329,0.0,0.0,78,0.00,,,0.00,WeatherCatV1.15B25,2013-04-12 06:11:00,
2013-04-11 23:16:00,50.3,42.3,29.82,NNW,329,0.0,0.0,74,0.00,,,0.00,WeatherCatV1.15B25,2013-04-12 06:16:00,
2013-04-11 23:21:00,50.4,41.7,29.82,NNW,329,0.0,0.0,72,0.00,,,0.00,WeatherCatV1.15B25,2013-04-12 06:21:00,
2013-04-11 23:26:00,50.5,41.1,29.82,NNW,329,0.0,0.0,70,0.00,,,0.00,WeatherCatV1.15B25,2013-04-12 06:26:00,
2013-04-11 23:31:00,50.8,40.6,29.82,NNW,329,0.0,0.0,68,0.00,,,0.00,WeatherCatV1.15B25,2013-04-12 06:31:00,
2013-04-11 23:36:00,51.2,40.6,29.82,NNW,329,0.0,0.0,67,0.00,,,0.00,WeatherCatV1.15B25,2013-04-12 06:36:00,
2013-04-11 23:41:00,51.7,41.1,29.82,NNW,329,0.0,0.0,67,0.00,,,0.00,WeatherCatV1.15B25,2013-04-12 06:41:00,
2013-04-11 23:46:00,52.1,41.5,29.82,NNW,329,0.0,0.0,67,0.00,,,0.00,WeatherCatV1.15B25,2013-04-12 06:46:00,
2013-04-11 23:51:00,52.3,42.4,29.82,NNW,329,0.0,0.0,69,0.00,,,0.00,WeatherCatV1.15B25,2013-04-12 06:51:00,
2013-04-11 23:56:00,52.3,42.4,29.82,NNW,329,0.0,0.0,69,0.00,,,0.00,WeatherCatV1.15B25,2013-04-12 06:56:00,